Idanha, Oregon
Current Conditions -  °F | °C
As of 2:56 PM on Sunday 21 Dec 2014 (Local Time) from KSLE Reporting Station
Light Rain Light Rain  
Wind Chill: 54°   Ceiling: 7500
Heat Index: 54°   Visibility: 10mi
Dew Point: 50°   Wind: 6mph
Humidity: 86%   Direction: 180°S
Pressure: 30.12"   Gusts: NA
Location:  44.7°N, 122.08°W
Report Text: KSLE 212256Z 18005KT 10SM -RA SCT041 OVC075 12/10 A3012 RMK AO2 RAB21 SLP198 P0000 T01220100
Loading
Personal Weather Stations






























Interactive Weather Map New forecast layout! Learn more

10-Day Weather Forecast

Advertisements
Track Severe Weather on mobile